Time;durP1;ratioP1;P1;durP2;ratioP2;P2;SDS_P1;SDS_P2;PMS_P1;PMS_P2;Temp;Humidity;BMP_temperature;BMP_pressure;BME280_temperature;BME280_humidity;BME280_pressure;Samples;Min_cycle;Max_cycle;Signal;HPM_P1;HPM_P2
2023/04/18 00:00:11;;;;;;;11.38;6.25;;;8.20;99.90;;;6.82;100.00;98147.81;5039055;28;20048;-70
2023/04/18 00:02:42;;;;;;;12.13;6.90;;;8.10;99.90;;;6.80;100.00;98158.19;5038984;28;20122;-70
2023/04/18 00:05:16;;;;;;;11.32;6.22;;;8.00;99.90;;;6.88;100.00;98150.28;5042241;28;20052;-70
2023/04/18 00:07:44;;;;;;;13.77;6.70;;;8.00;99.90;;;6.66;100.00;98155.84;5037124;28;20045;-70
2023/04/18 00:10:11;;;;;;;10.80;7.00;;;7.90;99.90;;;6.55;100.00;98160.34;5034066;28;20063;-70
2023/04/18 00:12:38;;;;;;;15.82;7.03;;;7.80;99.90;;;6.39;100.00;98157.16;5036009;28;20054;-69
2023/04/18 00:15:07;;;;;;;12.07;7.57;;;7.70;99.90;;;6.38;100.00;98152.88;5037058;28;20955;-70
2023/04/18 00:17:38;;;;;;;10.98;7.22;;;7.60;99.90;;;6.22;100.00;98149.69;5038288;28;20110;-70
2023/04/18 00:20:09;;;;;;;13.77;7.20;;;7.60;99.90;;;6.17;100.00;98153.22;5034660;28;20058;-70
2023/04/18 00:22:41;;;;;;;10.45;7.25;;;7.50;99.90;;;5.95;100.00;98152.69;5036887;28;20060;-70
2023/04/18 00:25:10;;;;;;;10.85;7.18;;;7.40;99.90;;;6.00;100.00;98156.91;5022579;28;20080;-69
2023/04/18 00:27:40;;;;;;;10.13;6.65;;;7.30;99.90;;;5.97;100.00;98146.63;5037921;28;20046;-70
2023/04/18 00:30:08;;;;;;;10.77;7.53;;;7.20;99.90;;;5.62;100.00;98154.84;5041632;28;20520;-70
2023/04/18 00:32:35;;;;;;;11.25;7.30;;;7.10;99.90;;;5.54;100.00;98148.94;5040038;28;20045;-69
2023/04/18 00:35:03;;;;;;;11.45;6.78;;;;;;;5.33;100.00;98150.91;5040290;28;20510;-70
2023/04/18 00:37:30;;;;;;;9.57;6.20;;;6.90;99.90;;;5.13;100.00;98150.31;5037447;28;20064;-69
2023/04/18 00:39:57;;;;;;;11.63;7.97;;;6.80;99.90;;;5.12;100.00;98164.91;5036664;28;20124;-70
2023/04/18 00:42:26;;;;;;;10.75;6.97;;;6.60;99.90;;;5.09;100.00;98161.53;5035720;28;20061;-69
2023/04/18 00:44:53;;;;;;;11.02;6.85;;;6.60;99.90;;;4.97;100.00;98165.06;5039972;28;20159;-69
2023/04/18 00:47:20;;;;;;;11.95;6.85;;;6.50;99.90;;;5.09;100.00;98164.94;5037588;28;20111;-70
2023/04/18 00:49:48;;;;;;;13.32;7.65;;;6.40;99.90;;;5.02;100.00;98164.16;5038664;28;20045;-70
2023/04/18 00:52:15;;;;;;;11.25;6.85;;;6.40;99.90;;;4.98;100.00;98167.63;5020698;28;20045;-68
2023/04/18 00:54:44;;;;;;;10.98;6.82;;;6.30;99.90;;;4.79;100.00;98173.84;5038793;28;20132;-68
2023/04/18 00:57:12;;;;;;;12.13;7.10;;;6.30;99.90;;;4.87;100.00;98160.91;5035296;28;20366;-69
2023/04/18 00:59:39;;;;;;;12.48;7.50;;;6.20;99.90;;;4.71;100.00;98166.19;5040224;28;20056;-70
2023/04/18 01:02:06;;;;;;;12.65;7.20;;;6.10;99.90;;;4.63;100.00;98167.13;5040653;28;20057;-69
2023/04/18 01:04:33;;;;;;;13.00;6.97;;;6.10;99.90;;;4.64;100.00;98169.69;5040166;28;20384;-70
2023/04/18 01:07:01;;;;;;;12.13;7.25;;;6.00;99.90;;;4.70;100.00;98161.94;5041348;28;20124;-69
2023/04/18 01:09:28;;;;;;;10.38;7.35;;;6.00;99.90;;;4.55;100.00;98162.91;5040134;28;20045;-69
2023/04/18 01:11:55;;;;;;;13.73;7.97;;;6.00;99.90;;;4.54;100.00;98157.81;5042719;28;20080;-69
2023/04/18 01:14:22;;;;;;;13.13;7.38;;;5.90;99.90;;;4.25;100.00;98153.75;5036585;28;20052;-69
2023/04/18 01:16:50;;;;;;;12.55;8.13;;;5.80;99.90;;;4.27;100.00;98154.59;5038252;28;20717;-69
2023/04/18 01:19:17;;;;;;;12.63;7.43;;;5.70;99.90;;;4.30;100.00;98156.28;5038889;28;20127;-70
2023/04/18 01:21:44;;;;;;;10.40;7.40;;;5.70;99.90;;;4.24;100.00;98156.31;5040483;28;20045;-70
2023/04/18 01:24:18;;;;;;;11.77;7.68;;;5.70;99.90;;;4.31;100.00;98152.84;5039287;28;20045;-69
2023/04/18 01:26:48;;;;;;;11.23;7.35;;;5.60;99.90;;;4.26;100.00;98152.03;5041749;28;20046;-70
2023/04/18 01:29:15;;;;;;;11.30;7.45;;;5.60;99.90;;;4.27;100.00;98146.03;5021587;28;20374;-68
2023/04/18 01:31:42;;;;;;;13.52;7.53;;;5.60;99.90;;;4.19;100.00;98144.34;5040403;28;20052;-69
2023/04/18 01:34:10;;;;;;;12.13;7.93;;;5.60;99.90;;;4.15;100.00;98140.13;5038967;28;20052;-69
2023/04/18 01:36:38;;;;;;;13.60;8.02;;;5.50;99.90;;;4.05;100.00;98142.78;5024291;28;20052;-69
2023/04/18 01:39:05;;;;;;;14.40;8.45;;;5.50;99.90;;;4.09;100.00;98145.31;5041263;28;20053;-70
2023/04/18 01:41:32;;;;;;;14.93;8.65;;;5.50;99.90;;;4.15;100.00;98137.56;5042264;28;20107;-69
2023/04/18 01:44:00;;;;;;;12.52;8.00;;;5.40;99.90;;;4.02;100.00;98145.38;5042370;28;20418;-69
2023/04/18 01:46:28;;;;;;;11.27;7.22;;;5.40;99.90;;;3.75;100.00;98137.00;5037802;28;20410;-69
2023/04/18 01:48:57;;;;;;;12.80;8.18;;;5.30;99.90;;;3.62;100.00;98136.19;5036616;28;20061;-70
2023/04/18 01:51:25;;;;;;;14.90;8.05;;;5.20;99.90;;;3.63;100.00;98134.50;5037952;28;20067;-70
2023/04/18 01:53:52;;;;;;;10.57;7.53;;;5.10;99.90;;;3.66;100.00;98134.47;5042063;28;20070;-69
2023/04/18 01:56:19;;;;;;;9.38;6.97;;;5.10;99.90;;;3.79;100.00;98136.13;5040009;28;20048;-70
2023/04/18 01:58:46;;;;;;;11.77;8.35;;;5.10;99.90;;;3.87;100.00;98136.06;5041072;28;20072;-69
2023/04/18 02:01:13;;;;;;;14.75;8.23;;;5.10;99.90;;;3.79;100.00;98133.53;5037528;28;20053;-69
2023/04/18 02:03:40;;;;;;;11.50;8.13;;;5.10;99.90;;;3.74;100.00;98131.00;5039028;28;20051;-70
2023/04/18 02:06:08;;;;;;;13.32;8.52;;;5.10;99.90;;;3.65;100.00;98130.19;5024605;28;20537;-70
2023/04/18 02:08:35;;;;;;;10.40;7.93;;;5.10;99.90;;;3.43;100.00;98132.03;5033416;28;20050;-70
2023/04/18 02:11:02;;;;;;;12.65;8.05;;;5.00;99.90;;;3.29;100.00;98144.94;5032860;28;20045;-69
2023/04/18 02:13:30;;;;;;;10.88;8.20;;;4.90;99.90;;;3.31;100.00;98143.22;5026686;28;20416;-69
2023/04/18 02:15:56;;;;;;;15.40;8.60;;;4.80;99.90;;;3.37;100.00;98134.63;5037690;28;20143;-69
2023/04/18 02:18:25;;;;;;;13.90;7.70;;;4.80;99.90;;;3.19;100.00;98145.81;5039451;28;20081;-70
2023/04/18 02:20:52;;;;;;;11.40;7.95;;;4.80;99.90;;;3.27;100.00;98138.97;5041163;28;20067;-70
2023/04/18 02:23:19;;;;;;;13.55;8.68;;;4.70;99.90;;;3.24;100.00;98136.38;5033959;28;20059;-69
2023/04/18 02:25:46;;;;;;;14.68;8.77;;;4.70;99.90;;;3.19;100.00;98141.53;5040537;28;20048;-69
2023/04/18 02:28:13;;;;;;;16.55;9.60;;;4.60;99.90;;;3.22;100.00;98144.13;5040078;28;20052;-69
2023/04/18 02:30:40;;;;;;;13.73;9.45;;;4.60;99.90;;;3.37;100.00;98135.47;5037934;28;20051;-70
2023/04/18 02:33:07;;;;;;;12.70;9.13;;;4.70;99.90;;;3.47;100.00;98142.28;5037722;28;20056;-70
2023/04/18 02:35:37;;;;;;;13.88;8.98;;;4.70;99.90;;;3.51;100.00;98136.28;5039014;28;20227;-70
2023/04/18 02:38:04;;;;;;;14.15;9.23;;;4.80;99.90;;;3.46;100.00;98137.16;5040616;28;20093;-69
2023/04/18 02:40:31;;;;;;;13.00;9.73;;;4.80;99.90;;;3.40;100.00;98137.16;5037114;28;20057;-70
2023/04/18 02:42:58;;;;;;;13.25;9.00;;;4.80;99.90;;;3.38;100.00;98131.22;5037996;28;20048;-70
2023/04/18 02:45:25;;;;;;;11.20;8.52;;;4.70;99.90;;;3.29;100.00;98126.97;5033329;28;20056;-69
2023/04/18 02:47:52;;;;;;;16.55;9.13;;;4.70;99.90;;;3.40;100.00;98130.34;5037573;28;20866;-70
2023/04/18 02:50:24;;;;;;;15.35;8.73;;;4.70;99.90;;;3.61;100.00;98138.78;5041443;28;20103;-70
2023/04/18 02:52:52;;;;;;;10.35;7.90;;;4.70;99.90;;;3.44;100.00;98129.44;5040726;28;20132;-69
2023/04/18 02:55:20;;;;;;;14.25;9.65;;;4.80;99.90;;;3.59;100.00;98136.22;5037590;28;20131;-70
2023/04/18 02:57:47;;;;;;;13.15;9.15;;;4.80;99.90;;;3.46;100.00;98132.03;5041533;28;20064;-70
2023/04/18 03:00:15;;;;;;;14.13;9.75;;;4.80;99.90;;;3.48;100.00;98135.44;5040988;28;20061;-71
2023/04/18 03:02:42;;;;;;;15.13;10.10;;;4.80;99.90;;;3.46;100.00;98132.03;5037214;28;20111;-70
2023/04/18 03:05:09;;;;;;;15.85;9.95;;;4.80;99.90;;;3.45;100.00;98130.31;5033139;28;20057;-70
2023/04/18 03:07:36;;;;;;;14.93;9.10;;;4.80;99.90;;;3.51;100.00;98130.28;5039884;28;20436;-70
2023/04/18 03:10:04;;;;;;;13.13;9.68;;;4.80;99.90;;;3.49;100.00;98132.88;5037021;28;20135;-69
2023/04/18 03:12:31;;;;;;;14.88;8.98;;;4.80;99.90;;;3.37;100.00;98124.38;5038348;28;20053;-68
2023/04/18 03:14:58;;;;;;;13.93;9.90;;;4.70;99.90;;;3.40;100.00;98127.78;5038583;28;20492;-69
2023/04/18 03:17:26;;;;;;;14.70;10.18;;;4.70;99.90;;;3.44;100.00;98131.16;5036221;28;20045;-70
2023/04/18 03:19:54;;;;;;;15.30;10.77;;;4.70;99.90;;;3.56;100.00;98129.41;5036625;28;20048;-68
2023/04/18 03:22:21;;;;;;;17.55;10.55;;;4.80;99.90;;;3.52;100.00;98125.13;5041327;28;20056;-69
2023/04/18 03:24:48;;;;;;;15.70;10.90;;;4.80;99.90;;;3.59;100.00;98132.81;5037842;28;20514;-70
2023/04/18 03:27:15;;;;;;;13.50;10.45;;;4.80;99.90;;;3.56;100.00;98120.84;5035085;28;20053;-70
2023/04/18 03:29:42;;;;;;;16.98;11.65;;;4.80;99.90;;;3.52;100.00;98127.72;5036999;28;20056;-70
2023/04/18 03:32:09;;;;;;;19.25;12.50;;;4.80;99.90;;;3.55;100.00;98126.84;5036063;28;20055;-70
2023/04/18 03:34:36;;;;;;;16.88;13.15;;;4.80;99.90;;;3.59;100.00;98128.53;5037036;28;20049;-70
2023/04/18 03:37:03;;;;;;;17.15;12.38;;;4.80;99.90;;;3.61;100.00;98128.53;5045466;28;20052;-69
2023/04/18 03:39:30;;;;;;;17.60;12.65;;;4.80;99.90;;;3.65;100.00;98131.06;5039347;28;20045;-70
2023/04/18 03:42:01;;;;;;;18.10;12.32;;;4.80;99.90;;;3.68;100.00;98128.47;5036126;28;20050;-69
2023/04/18 03:44:27;;;;;;;18.92;14.18;;;4.80;99.90;;;3.73;100.00;98131.00;5041617;28;20041;-70
2023/04/18 03:46:57;;;;;;;19.38;13.30;;;4.90;99.90;;;3.87;100.00;98130.91;5045159;28;20136;-70
2023/04/18 03:49:24;;;;;;;18.52;13.18;;;4.90;99.90;;;3.83;100.00;98129.22;5040708;28;20056;-70
2023/04/18 03:51:51;;;;;;;18.30;14.75;;;5.00;99.90;;;3.89;100.00;98129.19;5040456;28;20045;-69
2023/04/18 03:54:18;;;;;;;16.70;12.60;;;5.00;99.90;;;3.98;100.00;98129.13;5040599;28;20063;-69
2023/04/18 03:56:45;;;;;;;17.00;13.35;;;5.10;99.90;;;4.12;100.00;98131.59;5026461;28;20164;-69
2023/04/18 03:59:12;;;;;;;22.33;14.27;;;5.10;99.90;;;4.26;100.00;98131.47;5025570;28;20082;-72
2023/04/18 04:01:39;;;;;;;19.23;12.93;;;5.20;99.90;;;4.32;100.00;98123.72;5040086;28;20061;-69
2023/04/18 04:04:08;;;;;;;21.05;13.80;;;5.30;99.90;;;4.36;100.00;98118.53;5039921;28;20049;-69
2023/04/18 04:06:36;;;;;;;17.92;14.15;;;5.40;99.90;;;4.54;100.00;98124.38;5043921;28;20050;-69
2023/04/18 04:09:03;;;;;;;21.10;14.15;;;5.50;99.90;;;4.57;100.00;98121.75;5046188;28;20064;-70
2023/04/18 04:11:30;;;;;;;21.33;14.10;;;5.60;99.90;;;4.58;100.00;98121.75;5042103;28;20045;-69
2023/04/18 04:13:57;;;;;;;17.75;14.23;;;5.60;99.90;;;4.72;100.00;98119.03;5039559;28;20049;-70
2023/04/18 04:16:24;;;;;;;20.08;14.23;;;5.70;99.90;;;4.75;100.00;98118.16;5041695;28;20429;-69
2023/04/18 04:18:51;;;;;;;24.05;13.90;;;5.70;99.90;;;4.76;100.00;98120.69;5044322;28;20143;-69
2023/04/18 04:21:18;;;;;;;20.67;14.60;;;5.80;99.90;;;4.81;100.00;98115.50;5039269;28;20049;-69
2023/04/18 04:23:47;;;;;;;19.13;14.77;;;5.80;99.90;;;4.88;100.00;98124.88;5039333;28;20546;-69
2023/04/18 04:26:13;;;;;;;20.58;15.10;;;5.90;99.90;;;4.93;100.00;98117.97;5012346;28;20053;-70
2023/04/18 04:28:41;;;;;;;19.15;14.18;;;5.90;99.90;;;5.00;100.00;98127.31;5040019;28;20067;-70
2023/04/18 04:31:09;;;;;;;21.02;14.10;;;6.00;99.90;;;5.01;100.00;98118.69;5034815;28;20044;-69
2023/04/18 04:33:37;;;;;;;20.83;14.82;;;6.00;99.90;;;5.01;100.00;98123.00;5040605;28;20091;-69
2023/04/18 04:36:08;;;;;;;20.33;14.02;;;6.10;99.90;;;5.05;100.00;98122.09;5043386;28;20049;-70
2023/04/18 04:38:39;;;;;;;19.08;13.40;;;6.10;99.90;;;5.08;100.00;98116.06;5038117;28;20065;-69
2023/04/18 04:41:06;;;;;;;18.90;14.02;;;6.10;99.90;;;5.15;100.00;98113.38;5042412;28;20063;-70
2023/04/18 04:43:34;;;;;;;16.15;13.45;;;6.10;99.90;;;5.21;100.00;98115.88;5038907;28;20132;-70
2023/04/18 04:46:06;;;;;;;20.48;14.65;;;6.20;99.90;;;5.12;100.00;98110.84;5038046;28;20037;-69
2023/04/18 04:48:33;;;;;;;17.65;14.05;;;6.20;99.90;;;5.14;100.00;98114.28;5036752;28;20053;-69
2023/04/18 04:51:00;;;;;;;20.67;14.55;;;6.20;99.90;;;5.15;100.00;98110.81;5039832;28;20037;-70
2023/04/18 04:53:31;;;;;;;19.75;13.18;;;6.20;99.90;;;5.18;100.00;98112.53;5036936;28;20060;-69
2023/04/18 04:55:58;;;;;;;20.40;14.18;;;6.20;99.90;;;5.28;100.00;98121.81;5035070;28;20060;-69
2023/04/18 04:58:25;;;;;;;17.40;13.80;;;6.30;99.90;;;5.19;100.00;98121.94;5035981;28;20049;-70
2023/04/18 05:00:53;;;;;;;18.27;13.55;;;6.30;99.90;;;5.28;100.00;98116.66;5032587;28;20064;-70
2023/04/18 05:03:21;;;;;;;19.65;13.20;;;6.30;99.90;;;5.16;100.00;98122.81;5032840;28;20049;-68
2023/04/18 05:05:48;;;;;;;18.88;12.60;;;6.20;99.90;;;5.14;100.00;98111.69;5040624;28;20046;-70
2023/04/18 05:08:15;;;;;;;18.23;13.38;;;6.20;99.90;;;5.17;100.00;98111.66;5032710;28;20076;-71
2023/04/18 05:10:43;;;;;;;17.85;14.10;;;6.10;99.90;;;5.08;100.00;98126.34;5038405;28;20054;-70
2023/04/18 05:13:10;;;;;;;19.60;13.98;;;6.10;99.90;;;5.13;100.00;98117.72;5035402;28;20052;-70
2023/04/18 05:15:38;;;;;;;22.50;13.73;;;6.20;99.90;;;5.08;100.00;98111.75;5036758;28;20058;-70
2023/04/18 05:18:06;;;;;;;18.25;14.07;;;6.10;99.90;;;5.11;100.00;98127.19;5033903;28;20428;-69
2023/04/18 05:20:33;;;;;;;17.33;13.38;;;6.10;99.90;;;5.09;100.00;98126.34;5035442;28;20141;-68
2023/04/18 05:23:00;;;;;;;18.17;13.38;;;6.10;99.90;;;5.14;100.00;98124.56;5036418;28;20041;-70
2023/04/18 05:25:28;;;;;;;17.23;13.63;;;6.20;99.90;;;5.16;100.00;98122.81;5036328;28;20115;-69
2023/04/18 05:27:56;;;;;;;17.48;13.80;;;6.20;99.90;;;5.30;100.00;98127.81;5040914;28;20053;-70
2023/04/18 05:30:26;;;;;;;20.60;13.18;;;6.20;99.90;;;5.30;100.00;98124.38;5021611;28;20076;-67
2023/04/18 05:32:53;;;;;;;17.83;13.23;;;6.20;99.90;;;5.33;100.00;98125.19;5038485;28;20068;-69
2023/04/18 05:35:20;;;;;;;19.38;13.55;;;6.30;99.90;;;5.34;100.00;98124.31;5031616;28;20136;-70
2023/04/18 05:37:47;;;;;;;16.90;12.75;;;6.30;99.90;;;5.46;100.00;98125.88;5038936;28;20084;-70
2023/04/18 05:40:14;;;;;;;21.33;15.18;;;6.40;99.90;;;5.51;100.00;98118.94;5040235;28;20409;-69
2023/04/18 05:42:41;;;;;;;22.95;14.35;;;6.40;99.90;;;5.71;100.00;98128.13;5035299;28;20049;-70
2023/04/18 05:45:08;;;;;;;20.00;14.55;;;6.50;99.90;;;5.61;100.00;98120.53;5040838;28;20140;-70
2023/04/18 05:47:35;;;;;;;19.42;14.00;;;6.60;99.90;;;5.60;100.00;98123.97;5041827;28;21285;-68
2023/04/18 05:50:03;;;;;;;18.08;13.27;;;6.60;99.90;;;5.74;100.00;98128.06;5043370;28;20106;-69
2023/04/18 05:52:30;;;;;;;17.50;14.13;;;6.70;99.90;;;5.72;100.00;98137.53;5024261;28;20044;-70
2023/04/18 05:54:58;;;;;;;18.33;13.15;;;6.60;99.90;;;5.74;100.00;98133.22;5043851;28;20140;-69
2023/04/18 05:57:25;;;;;;;20.60;14.18;;;6.70;99.90;;;5.82;100.00;98139.13;5040126;28;20059;-70
2023/04/18 05:59:52;;;;;;;19.75;13.85;;;6.80;99.90;;;5.89;100.00;98135.59;5036994;28;20049;-68
2023/04/18 06:02:21;;;;;;;20.52;13.32;;;6.80;99.90;;;5.89;100.00;98135.59;5038173;28;20053;-69
2023/04/18 06:04:50;;;;;;;20.20;14.48;;;6.90;99.90;;;5.82;100.00;98142.53;5036878;28;20373;-69
2023/04/18 06:07:17;;;;;;;23.15;14.85;;;6.90;99.90;;;5.88;100.00;98139.00;5037646;28;20437;-69
2023/04/18 06:09:44;;;;;;;20.40;14.13;;;6.80;99.90;;;5.68;100.00;98144.47;5041015;28;20718;-70
2023/04/18 06:12:11;;;;;;;17.73;13.82;;;6.80;99.90;;;5.76;100.00;98141.78;5039249;28;20053;-68
2023/04/18 06:14:38;;;;;;;20.27;15.50;;;6.80;99.90;;;5.68;100.00;98151.31;5036821;28;20152;-69
2023/04/18 06:17:06;;;;;;;22.90;14.63;;;6.80;99.90;;;5.62;100.00;98147.97;5038380;28;20445;-69
2023/04/18 06:19:33;;;;;;;21.45;14.63;;;6.70;99.90;;;5.67;100.00;98150.47;5025971;28;20052;-70
2023/04/18 06:22:00;;;;;;;21.02;14.70;;;6.70;99.90;;;5.58;100.00;98159.19;5025495;28;20051;-68
2023/04/18 06:24:27;;;;;;;18.98;14.07;;;6.70;99.90;;;5.60;100.00;98162.59;5037626;28;20064;-70
2023/04/18 06:26:57;;;;;;;18.88;14.38;;;6.70;99.90;;;5.53;100.00;98153.25;5040705;28;20077;-69
2023/04/18 06:29:27;;;;;;;22.52;14.95;;;6.70;99.90;;;5.65;100.00;98170.25;5036833;28;20220;-70
2023/04/18 06:31:54;;;;;;;18.65;13.75;;;6.70;99.90;;;5.68;100.00;98169.34;5036059;28;20040;-70
2023/04/18 06:34:21;;;;;;;22.55;14.77;;;6.70;99.90;;;5.68;100.00;98167.66;5036630;28;20143;-68
2023/04/18 06:36:48;;;;;;;22.50;13.98;;;6.70;99.90;;;5.69;100.00;98166.78;5034776;28;20045;-69
2023/04/18 06:39:15;;;;;;;20.13;14.85;;;6.70;99.90;;;5.80;100.00;98169.22;5039068;28;20088;-68
2023/04/18 06:41:43;;;;;;;20.48;14.48;;;6.80;99.90;;;5.75;100.00;98166.69;5036376;28;20075;-70
2023/04/18 06:44:09;;;;;;;19.20;13.85;;;6.80;99.90;;;5.86;100.00;98169.09;5025691;28;20059;-69
2023/04/18 06:46:36;;;;;;;17.77;13.82;;;6.80;99.90;;;5.95;100.00;98163.84;5035311;28;20049;-69
2023/04/18 06:49:03;;;;;;;21.50;15.20;;;6.90;99.90;;;6.12;100.00;98161.03;5037878;28;20060;-70
2023/04/18 06:51:31;;;;;;;21.17;13.95;;;7.00;99.90;;;6.24;100.00;98159.97;5027793;28;21062;-70
2023/04/18 06:53:58;;;;;;;18.73;13.10;;;7.20;99.90;;;6.29;100.00;98160.75;5037631;28;20048;-69
2023/04/18 06:56:25;;;;;;;17.95;14.07;;;7.30;99.90;;;6.34;100.00;98161.56;5033885;28;20387;-71
2023/04/18 06:58:52;;;;;;;21.63;14.68;;;7.40;99.90;;;6.56;100.00;98156.88;5037944;28;20076;-70
2023/04/18 07:01:19;;;;;;;19.73;13.48;;;7.40;99.90;;;6.49;100.00;98161.28;5038377;28;20085;-70
2023/04/18 07:03:46;;;;;;;18.02;14.23;;;7.50;99.90;;;6.63;100.00;98160.19;5038057;28;20460;-69
2023/04/18 07:06:14;;;;;;;17.98;13.25;;;7.50;99.90;;;6.43;100.00;98160.53;5025451;28;20083;-68
2023/04/18 07:08:41;;;;;;;20.60;14.43;;;7.50;99.90;;;6.62;100.00;98161.94;5041743;28;20132;-70
2023/04/18 07:11:10;;;;;;;19.25;13.65;;;7.60;99.90;;;6.71;100.00;98160.94;5041960;28;20053;-69
2023/04/18 07:13:37;;;;;;;17.55;13.52;;;7.60;99.90;;;6.65;100.00;98163.59;5039014;28;20543;-70
2023/04/18 07:16:05;;;;;;;19.70;14.90;;;7.60;99.90;;;6.59;100.00;98164.56;5044412;28;20048;-70
2023/04/18 07:18:32;;;;;;;19.90;14.60;;;7.60;99.90;;;6.57;100.00;98176.63;5040480;28;20060;-70
2023/04/18 07:21:07;;;;;;;19.30;14.27;;;7.50;99.90;;;6.53;100.00;98163.81;5043460;28;20580;-69
2023/04/18 07:23:35;;;;;;;18.85;13.07;;;7.60;99.90;;;6.59;100.00;98166.28;5042864;28;20049;-70
2023/04/18 07:26:04;;;;;;;22.25;14.32;;;7.60;99.90;;;7.02;100.00;98155.19;5041464;28;20044;-69
2023/04/18 07:28:32;;;;;;;19.52;14.13;;;7.70;99.90;;;7.18;100.00;98159.16;5038821;28;20041;-70
2023/04/18 07:31:00;;;;;;;18.75;13.68;;;7.80;99.90;;;6.99;100.00;98150.09;5044185;28;20071;-70
2023/04/18 07:33:30;;;;;;;17.13;13.63;;;8.00;99.90;;;7.14;100.00;98152.38;5041335;28;20053;-69
2023/04/18 07:35:57;;;;;;;18.70;13.50;;;8.10;99.90;;;7.45;100.00;98142.25;5045608;28;20217;-70
2023/04/18 07:38:24;;;;;;;16.88;13.32;;;8.20;99.90;;;7.64;100.00;98149.63;5042374;28;20051;-70
2023/04/18 07:40:58;;;;;;;16.98;12.98;;;8.30;99.90;;;7.57;100.00;98145.47;5039521;28;20401;-70
2023/04/18 07:43:26;;;;;;;17.50;12.90;;;8.40;99.90;;;7.43;100.00;98143.19;5038629;28;20427;-70
2023/04/18 07:45:53;;;;;;;17.35;13.27;;;8.40;99.90;;;7.42;100.00;98147.50;5038357;28;20152;-69
2023/04/18 07:48:21;;;;;;;17.98;13.85;;;8.40;99.90;;;7.40;100.00;98145.84;5029123;28;20485;-70
2023/04/18 07:50:48;;;;;;;16.55;12.40;;;8.40;99.90;;;7.15;100.00;98154.06;5039706;28;20077;-70
2023/04/18 07:53:15;;;;;;;16.15;13.48;;;8.40;99.90;;;7.42;100.00;98141.50;5041602;28;20052;-70
2023/04/18 07:55:43;;;;;;;20.15;14.38;;;8.40;99.90;;;7.24;100.00;98153.03;5044446;28;20091;-68
2023/04/18 07:58:10;;;;;;;17.10;12.93;;;8.40;99.90;;;7.28;100.00;98152.09;5040067;28;20053;-70
2023/04/18 08:00:43;;;;;;;18.77;13.93;;;8.30;99.90;;;7.27;100.00;98155.56;5040745;28;20131;-69
2023/04/18 08:03:11;;;;;;;18.23;13.52;;;8.20;99.90;;;7.27;100.00;98156.41;5044470;28;20075;-70
2023/04/18 08:05:40;;;;;;;17.58;13.52;;;8.30;99.90;;;7.11;100.00;98165.34;5040513;28;20122;-70
2023/04/18 08:08:12;;;;;;;19.17;13.98;;;8.20;99.90;;;7.06;100.00;98170.59;5041338;28;20510;-70
2023/04/18 08:10:39;;;;;;;16.73;13.00;;;8.20;99.90;;;7.31;100.00;98163.22;5041904;28;20051;-70
2023/04/18 08:13:07;;;;;;;16.13;13.30;;;8.20;99.90;;;7.46;100.00;98166.38;5041609;28;20076;-69
2023/04/18 08:15:34;;;;;;;17.70;13.82;;;8.30;99.90;;;7.75;100.00;98169.19;5041260;28;20057;-69
2023/04/18 08:18:01;;;;;;;20.75;14.55;;;8.50;99.90;;;7.66;100.00;98166.81;5039389;28;20098;-70
2023/04/18 08:20:28;;;;;;;20.58;15.70;;;8.50;99.90;;;7.29;100.00;98172.72;5039356;28;20049;-70
2023/04/18 08:22:55;;;;;;;16.05;13.30;;;8.50;99.90;;;7.13;100.00;98177.31;5042708;28;20135;-70
2023/04/18 08:25:35;;;;;;;19.90;16.02;;;8.30;99.90;;;7.30;100.00;98182.19;5042196;28;20048;-69
2023/04/18 08:28:02;;;;;;;21.45;15.20;;;8.30;99.90;;;7.11;100.00;98181.66;5042973;28;20051;-70
2023/04/18 08:30:30;;;;;;;19.38;15.32;;;8.20;99.90;;;6.98;100.00;98180.22;5038234;28;20584;-70
2023/04/18 08:32:59;;;;;;;21.23;16.08;;;8.10;99.90;;;6.85;100.00;98189.91;5042703;28;20045;-70
2023/04/18 08:35:29;;;;;;;23.63;17.05;;;8.00;99.90;;;6.63;100.00;98178.25;5037818;28;20045;-69
2023/04/18 08:37:56;;;;;;;20.02;15.55;;;7.90;99.90;;;6.80;100.00;98196.88;5037685;28;20107;-70
2023/04/18 08:40:23;;;;;;;19.77;15.40;;;7.90;99.90;;;6.66;100.00;98191.09;5021354;28;20056;-69
2023/04/18 08:42:52;;;;;;;20.95;16.92;;;7.90;99.90;;;6.69;100.00;98198.78;5032732;28;20053;-68
2023/04/18 08:45:20;;;;;;;20.48;15.93;;;7.80;99.90;;;6.85;100.00;98201.97;5037787;28;20049;-69
2023/04/18 08:47:47;;;;;;;21.52;15.38;;;7.80;99.90;;;6.95;100.00;98200.06;5039241;28;20056;-70
2023/04/18 08:50:15;;;;;;;20.52;14.52;;;7.80;99.90;;;6.76;100.00;98196.97;5035235;28;20080;-68
2023/04/18 08:52:48;;;;;;;21.40;16.45;;;7.90;99.90;;;6.69;100.00;98209.97;5039160;28;20063;-69
2023/04/18 08:55:15;;;;;;;21.10;15.93;;;7.80;99.90;;;6.57;100.00;98212.75;5028613;28;20053;-70
2023/04/18 08:57:43;;;;;;;23.40;17.48;;;7.70;99.90;;;6.60;100.00;98209.28;5053535;28;20060;-71
2023/04/18 09:00:11;;;;;;;22.88;16.05;;;7.70;99.90;;;6.66;100.00;98215.19;5035911;28;20142;-68
2023/04/18 09:02:43;;;;;;;21.85;15.65;;;7.70;99.90;;;6.54;100.00;98217.09;5026637;28;20150;-69
2023/04/18 09:05:18;;;;;;;21.15;16.10;;;7.70;99.90;;;6.62;100.00;98233.31;5041980;28;20049;-70
2023/04/18 09:07:50;;;;;;;19.77;15.90;;;7.60;99.90;;;6.71;100.00;98233.16;5040447;28;20049;-68
2023/04/18 09:10:43;;;;;;;20.83;16.63;;;7.60;99.90;;;6.81;100.00;98234.69;5034482;28;20059;-69
2023/04/18 09:13:12;;;;;;;22.90;16.70;;;7.70;99.90;;;7.15;100.00;98228.94;5038656;28;20045;-70
2023/04/18 09:15:39;;;;;;;21.10;15.52;;;7.80;99.90;;;6.86;100.00;98230.28;5039613;28;20049;-70
2023/04/18 09:18:09;;;;;;;21.38;17.00;;;8.00;99.90;;;7.07;100.00;98230.78;5042348;28;20056;-70
2023/04/18 09:20:42;;;;;;;22.88;16.92;;;7.90;99.90;;;6.91;100.00;98225.06;5035690;28;20129;-69
2023/04/18 09:23:13;;;;;;;;;;;8.00;99.90;;;6.91;100.00;98220.78;5041457;28;20145;-67
2023/04/18 09:25:40;;;;;;;21.15;16.25;;;8.00;99.90;;;7.01;100.00;98211.13;5041590;28;19924;-70
2023/04/18 09:28:30;;;;;;;20.88;15.98;;;8.10;99.90;;;7.24;100.00;98209.84;5040394;28;20099;-70
2023/04/18 09:31:10;;;;;;;21.92;15.32;;;8.10;99.90;;;7.42;100.00;98201.75;5038954;28;20806;-70
2023/04/18 09:33:43;;;;;;;22.33;15.98;;;8.20;99.90;;;7.48;100.00;98203.34;5039460;28;20051;-69
2023/04/18 09:36:23;;;;;;;22.88;17.50;;;8.30;99.90;;;7.73;100.00;98207.13;5038198;28;20491;-70
2023/04/18 09:38:52;;;;;;;21.77;15.38;;;8.50;99.90;;;7.74;100.00;98202.81;5038017;28;20134;-69
2023/04/18 09:41:26;;;;;;;22.38;15.82;;;8.70;99.90;;;7.92;100.00;98202.41;5040289;28;20060;-68
2023/04/18 09:44:14;;;;;;;20.13;15.38;;;8.80;99.90;;;8.35;100.00;98195.44;5043542;28;20056;-69
2023/04/18 09:46:42;;;;;;;22.63;15.70;;;8.90;99.90;;;8.11;100.00;98195.09;5038695;28;20114;-70
2023/04/18 09:49:13;;;;;;;19.38;15.82;;;9.00;99.90;;;7.99;100.00;98197.97;5036656;28;20164;-71
2023/04/18 09:51:43;;;;;;;18.35;14.65;;;9.00;99.90;;;8.12;100.00;98196.81;5036313;28;20087;-70
2023/04/18 09:54:15;;;;;;;20.92;16.40;;;9.10;99.90;;;7.91;100.00;98192.97;5038495;28;20063;-70
2023/04/18 09:56:49;;;;;;;21.53;16.23;;;9.10;99.90;;;8.16;100.00;98192.41;5040046;28;20056;-68
2023/04/18 10:00:15;;;;;;;22.38;16.40;;;9.20;99.90;;;8.20;100.00;98191.44;5055136;28;20812;-67
2023/04/18 10:03:20;;;;;;;23.48;14.45;;;9.20;99.90;;;8.09;100.00;98191.69;4973232;28;20050;-69
2023/04/18 10:05:48;;;;;;;23.63;15.18;;;9.20;99.90;;;8.36;100.00;98187.59;5007099;28;20544;-69
2023/04/18 10:08:15;;;;;;;22.02;15.43;;;9.30;99.90;;;8.50;100.00;98184.72;5040720;28;20053;-69
2023/04/18 10:10:42;;;;;;;19.67;15.38;;;9.40;99.90;;;8.38;100.00;98190.16;5021230;28;20634;-69
2023/04/18 10:13:12;;;;;;;23.08;14.82;;;9.50;99.90;;;8.52;100.00;98179.50;5040890;28;20049;-70
2023/04/18 10:15:40;;;;;;;20.58;15.02;;;9.60;99.90;;;8.88;100.00;98180.31;5036733;28;20061;-70
2023/04/18 10:18:15;;;;;;;21.55;14.73;;;9.60;99.90;;;8.63;100.00;98184.44;5031599;28;20050;-71
2023/04/18 10:20:46;;;;;;;20.55;15.65;;;9.60;99.90;;;8.73;100.00;98186.72;5039656;28;20076;-69